sensor_id;sensor_type;location;lat;lon;timestamp;P1;durP1;ratioP1;P2;durP2;ratioP2
11653;SDS011;5883;48.818;9.114;2023-04-06T00:02:28;7.87;;;4.97;;
11653;SDS011;5883;48.818;9.114;2023-04-06T00:05:13;5.73;;;5.00;;
11653;SDS011;5883;48.818;9.114;2023-04-06T00:07:58;7.80;;;5.93;;
11653;SDS011;5883;48.818;9.114;2023-04-06T00:10:43;10.30;;;6.77;;
11653;SDS011;5883;48.818;9.114;2023-04-06T00:13:28;9.63;;;6.67;;
11653;SDS011;5883;48.818;9.114;2023-04-06T00:16:14;9.77;;;6.40;;
11653;SDS011;5883;48.818;9.114;2023-04-06T00:19:00;10.43;;;7.07;;
11653;SDS011;5883;48.818;9.114;2023-04-06T00:21:45;8.67;;;6.63;;
11653;SDS011;5883;48.818;9.114;2023-04-06T00:24:30;12.87;;;7.60;;
11653;SDS011;5883;48.818;9.114;2023-04-06T00:27:15;11.37;;;6.77;;
11653;SDS011;5883;48.818;9.114;2023-04-06T00:30:00;11.10;;;7.23;;
11653;SDS011;5883;48.818;9.114;2023-04-06T00:32:45;10.10;;;7.33;;
11653;SDS011;5883;48.818;9.114;2023-04-06T00:35:32;8.97;;;7.20;;
11653;SDS011;5883;48.818;9.114;2023-04-06T00:38:17;9.50;;;6.90;;
11653;SDS011;5883;48.818;9.114;2023-04-06T00:41:02;13.40;;;7.80;;
11653;SDS011;5883;48.818;9.114;2023-04-06T00:43:48;12.27;;;7.57;;
11653;SDS011;5883;48.818;9.114;2023-04-06T00:46:33;10.00;;;7.33;;
11653;SDS011;5883;48.818;9.114;2023-04-06T00:49:18;11.37;;;7.70;;
11653;SDS011;5883;48.818;9.114;2023-04-06T00:52:04;11.60;;;7.37;;
11653;SDS011;5883;48.818;9.114;2023-04-06T00:54:50;9.67;;;7.13;;
11653;SDS011;5883;48.818;9.114;2023-04-06T00:57:35;10.27;;;7.20;;
11653;SDS011;5883;48.818;9.114;2023-04-06T01:00:20;10.00;;;7.17;;
11653;SDS011;5883;48.818;9.114;2023-04-06T01:03:05;9.73;;;7.13;;
11653;SDS011;5883;48.818;9.114;2023-04-06T01:05:51;10.47;;;6.77;;
11653;SDS011;5883;48.818;9.114;2023-04-06T01:08:43;7.77;;;6.50;;
11653;SDS011;5883;48.818;9.114;2023-04-06T01:11:28;9.87;;;6.97;;
11653;SDS011;5883;48.818;9.114;2023-04-06T01:14:15;7.13;;;6.33;;
11653;SDS011;5883;48.818;9.114;2023-04-06T01:17:00;9.43;;;6.80;;
11653;SDS011;5883;48.818;9.114;2023-04-06T01:19:45;7.87;;;6.40;;
11653;SDS011;5883;48.818;9.114;2023-04-06T01:22:34;10.70;;;6.53;;
11653;SDS011;5883;48.818;9.114;2023-04-06T01:25:19;9.17;;;6.20;;
11653;SDS011;5883;48.818;9.114;2023-04-06T01:28:05;8.03;;;6.00;;
11653;SDS011;5883;48.818;9.114;2023-04-06T01:30:50;9.83;;;6.83;;
11653;SDS011;5883;48.818;9.114;2023-04-06T01:33:35;7.37;;;6.17;;
11653;SDS011;5883;48.818;9.114;2023-04-06T01:36:20;8.77;;;6.30;;
11653;SDS011;5883;48.818;9.114;2023-04-06T01:39:06;8.50;;;6.57;;
11653;SDS011;5883;48.818;9.114;2023-04-06T01:41:52;9.23;;;6.43;;
11653;SDS011;5883;48.818;9.114;2023-04-06T01:44:37;9.87;;;6.70;;
11653;SDS011;5883;48.818;9.114;2023-04-06T01:47:22;10.80;;;6.57;;
11653;SDS011;5883;48.818;9.114;2023-04-06T01:50:07;9.93;;;6.80;;
11653;SDS011;5883;48.818;9.114;2023-04-06T01:52:52;7.97;;;6.13;;
11653;SDS011;5883;48.818;9.114;2023-04-06T01:55:38;8.80;;;6.20;;
11653;SDS011;5883;48.818;9.114;2023-04-06T01:58:23;7.07;;;6.17;;
11653;SDS011;5883;48.818;9.114;2023-04-06T02:01:09;7.60;;;6.33;;
11653;SDS011;5883;48.818;9.114;2023-04-06T02:03:53;10.50;;;6.57;;
11653;SDS011;5883;48.818;9.114;2023-04-06T02:06:39;7.23;;;6.00;;
11653;SDS011;5883;48.818;9.114;2023-04-06T02:09:24;9.20;;;6.83;;
11653;SDS011;5883;48.818;9.114;2023-04-06T02:12:10;8.00;;;6.13;;
11653;SDS011;5883;48.818;9.114;2023-04-06T02:14:55;9.00;;;6.70;;
11653;SDS011;5883;48.818;9.114;2023-04-06T02:17:40;8.23;;;6.43;;
11653;SDS011;5883;48.818;9.114;2023-04-06T02:20:26;9.03;;;7.10;;
11653;SDS011;5883;48.818;9.114;2023-04-06T02:23:11;8.17;;;6.20;;
11653;SDS011;5883;48.818;9.114;2023-04-06T02:25:56;9.00;;;6.07;;
11653;SDS011;5883;48.818;9.114;2023-04-06T02:28:43;8.93;;;6.67;;
11653;SDS011;5883;48.818;9.114;2023-04-06T02:31:28;9.57;;;6.80;;
11653;SDS011;5883;48.818;9.114;2023-04-06T02:34:13;8.93;;;6.73;;
11653;SDS011;5883;48.818;9.114;2023-04-06T02:37:01;9.23;;;6.87;;
11653;SDS011;5883;48.818;9.114;2023-04-06T02:39:46;8.87;;;6.20;;
11653;SDS011;5883;48.818;9.114;2023-04-06T02:42:31;8.80;;;6.23;;
11653;SDS011;5883;48.818;9.114;2023-04-06T02:45:18;8.57;;;6.40;;
11653;SDS011;5883;48.818;9.114;2023-04-06T02:48:04;9.50;;;6.53;;
11653;SDS011;5883;48.818;9.114;2023-04-06T02:50:49;8.90;;;6.40;;
11653;SDS011;5883;48.818;9.114;2023-04-06T02:53:34;7.43;;;6.07;;
11653;SDS011;5883;48.818;9.114;2023-04-06T02:56:19;8.80;;;5.53;;
11653;SDS011;5883;48.818;9.114;2023-04-06T02:59:05;7.10;;;5.57;;
11653;SDS011;5883;48.818;9.114;2023-04-06T03:01:51;8.67;;;6.00;;
11653;SDS011;5883;48.818;9.114;2023-04-06T03:04:36;10.30;;;6.93;;
11653;SDS011;5883;48.818;9.114;2023-04-06T03:07:21;8.47;;;6.37;;
11653;SDS011;5883;48.818;9.114;2023-04-06T03:10:07;8.57;;;6.17;;
11653;SDS011;5883;48.818;9.114;2023-04-06T03:12:53;8.63;;;6.30;;
11653;SDS011;5883;48.818;9.114;2023-04-06T03:15:38;10.60;;;7.00;;
11653;SDS011;5883;48.818;9.114;2023-04-06T03:18:25;12.03;;;6.77;;
11653;SDS011;5883;48.818;9.114;2023-04-06T03:21:10;10.50;;;6.77;;
11653;SDS011;5883;48.818;9.114;2023-04-06T03:23:55;8.73;;;6.40;;
11653;SDS011;5883;48.818;9.114;2023-04-06T03:26:43;9.77;;;6.23;;
11653;SDS011;5883;48.818;9.114;2023-04-06T03:29:28;8.47;;;5.77;;
11653;SDS011;5883;48.818;9.114;2023-04-06T03:32:13;12.80;;;6.47;;
11653;SDS011;5883;48.818;9.114;2023-04-06T03:35:00;7.87;;;5.97;;
11653;SDS011;5883;48.818;9.114;2023-04-06T03:37:45;8.80;;;6.30;;
11653;SDS011;5883;48.818;9.114;2023-04-06T03:40:30;7.80;;;5.67;;
11653;SDS011;5883;48.818;9.114;2023-04-06T03:43:16;7.07;;;5.63;;
11653;SDS011;5883;48.818;9.114;2023-04-06T03:46:00;8.63;;;5.57;;
11653;SDS011;5883;48.818;9.114;2023-04-06T03:48:48;10.77;;;6.20;;
11653;SDS011;5883;48.818;9.114;2023-04-06T03:51:34;10.80;;;6.97;;
11653;SDS011;5883;48.818;9.114;2023-04-06T03:54:19;15.57;;;8.10;;
11653;SDS011;5883;48.818;9.114;2023-04-06T03:57:04;14.47;;;8.83;;
11653;SDS011;5883;48.818;9.114;2023-04-06T03:59:49;16.03;;;7.50;;
11653;SDS011;5883;48.818;9.114;2023-04-06T04:02:34;11.53;;;7.57;;
11653;SDS011;5883;48.818;9.114;2023-04-06T04:05:20;12.53;;;7.37;;
11653;SDS011;5883;48.818;9.114;2023-04-06T04:08:10;11.70;;;7.53;;
11653;SDS011;5883;48.818;9.114;2023-04-06T04:10:55;11.97;;;7.30;;
11653;SDS011;5883;48.818;9.114;2023-04-06T04:13:40;13.50;;;7.43;;
11653;SDS011;5883;48.818;9.114;2023-04-06T04:16:25;15.47;;;7.80;;
11653;SDS011;5883;48.818;9.114;2023-04-06T04:19:10;14.10;;;7.80;;
11653;SDS011;5883;48.818;9.114;2023-04-06T04:21:55;10.00;;;6.93;;
11653;SDS011;5883;48.818;9.114;2023-04-06T04:24:42;10.57;;;7.33;;
11653;SDS011;5883;48.818;9.114;2023-04-06T04:27:27;9.20;;;6.37;;
11653;SDS011;5883;48.818;9.114;2023-04-06T04:30:12;14.53;;;7.40;;
11653;SDS011;5883;48.818;9.114;2023-04-06T04:32:57;9.47;;;6.77;;
11653;SDS011;5883;48.818;9.114;2023-04-06T04:35:42;9.13;;;6.90;;
11653;SDS011;5883;48.818;9.114;2023-04-06T04:38:27;7.23;;;5.90;;
11653;SDS011;5883;48.818;9.114;2023-04-06T04:41:14;9.53;;;6.70;;
11653;SDS011;5883;48.818;9.114;2023-04-06T04:43:59;9.10;;;6.30;;
11653;SDS011;5883;48.818;9.114;2023-04-06T04:46:44;10.87;;;6.67;;
11653;SDS011;5883;48.818;9.114;2023-04-06T04:49:29;8.87;;;7.07;;
11653;SDS011;5883;48.818;9.114;2023-04-06T04:52:14;11.60;;;7.57;;
11653;SDS011;5883;48.818;9.114;2023-04-06T04:54:59;9.20;;;7.00;;
11653;SDS011;5883;48.818;9.114;2023-04-06T04:57:46;8.97;;;6.87;;
11653;SDS011;5883;48.818;9.114;2023-04-06T05:00:30;9.53;;;7.20;;
11653;SDS011;5883;48.818;9.114;2023-04-06T05:03:17;10.13;;;7.50;;
11653;SDS011;5883;48.818;9.114;2023-04-06T05:06:03;11.67;;;7.70;;
11653;SDS011;5883;48.818;9.114;2023-04-06T05:08:49;12.57;;;7.47;;
11653;SDS011;5883;48.818;9.114;2023-04-06T05:11:35;10.40;;;7.00;;
11653;SDS011;5883;48.818;9.114;2023-04-06T05:14:22;9.30;;;7.50;;
11653;SDS011;5883;48.818;9.114;2023-04-06T05:17:07;11.40;;;7.27;;
11653;SDS011;5883;48.818;9.114;2023-04-06T05:19:54;10.57;;;7.07;;
11653;SDS011;5883;48.818;9.114;2023-04-06T05:22:39;9.07;;;7.00;;
11653;SDS011;5883;48.818;9.114;2023-04-06T05:25:24;11.07;;;7.77;;
11653;SDS011;5883;48.818;9.114;2023-04-06T05:28:10;11.70;;;7.30;;
11653;SDS011;5883;48.818;9.114;2023-04-06T05:30:58;11.10;;;7.43;;
11653;SDS011;5883;48.818;9.114;2023-04-06T05:33:44;8.80;;;7.10;;
11653;SDS011;5883;48.818;9.114;2023-04-06T05:36:29;11.37;;;7.17;;
11653;SDS011;5883;48.818;9.114;2023-04-06T05:39:15;14.23;;;7.60;;
11653;SDS011;5883;48.818;9.114;2023-04-06T05:42:03;11.87;;;7.70;;
11653;SDS011;5883;48.818;9.114;2023-04-06T05:44:48;10.43;;;7.43;;
11653;SDS011;5883;48.818;9.114;2023-04-06T05:47:34;12.00;;;8.13;;
11653;SDS011;5883;48.818;9.114;2023-04-06T05:50:20;10.47;;;7.80;;
11653;SDS011;5883;48.818;9.114;2023-04-06T05:53:06;11.80;;;8.30;;
11653;SDS011;5883;48.818;9.114;2023-04-06T05:55:52;12.83;;;8.67;;
11653;SDS011;5883;48.818;9.114;2023-04-06T05:58:38;14.87;;;9.07;;
11653;SDS011;5883;48.818;9.114;2023-04-06T06:01:23;14.67;;;8.10;;
11653;SDS011;5883;48.818;9.114;2023-04-06T06:04:10;10.77;;;8.00;;
11653;SDS011;5883;48.818;9.114;2023-04-06T06:07:02;10.13;;;7.15;;
11653;SDS011;5883;48.818;9.114;2023-04-06T06:09:48;10.60;;;7.43;;
11653;SDS011;5883;48.818;9.114;2023-04-06T06:12:35;13.57;;;7.93;;
11653;SDS011;5883;48.818;9.114;2023-04-06T06:15:20;12.25;;;7.57;;
11653;SDS011;5883;48.818;9.114;2023-04-06T06:18:05;11.45;;;6.88;;
11653;SDS011;5883;48.818;9.114;2023-04-06T06:20:51;9.15;;;6.95;;
11653;SDS011;5883;48.818;9.114;2023-04-06T06:23:38;12.60;;;7.35;;
11653;SDS011;5883;48.818;9.114;2023-04-06T06:26:22;12.25;;;7.28;;
11653;SDS011;5883;48.818;9.114;2023-04-06T06:29:11;9.65;;;7.10;;
11653;SDS011;5883;48.818;9.114;2023-04-06T06:31:56;8.57;;;7.22;;
11653;SDS011;5883;48.818;9.114;2023-04-06T06:34:41;9.43;;;7.22;;
11653;SDS011;5883;48.818;9.114;2023-04-06T06:37:28;11.68;;;7.70;;
11653;SDS011;5883;48.818;9.114;2023-04-06T06:40:13;9.23;;;7.15;;
11653;SDS011;5883;48.818;9.114;2023-04-06T06:42:59;10.55;;;7.65;;
11653;SDS011;5883;48.818;9.114;2023-04-06T06:45:44;9.38;;;7.03;;
11653;SDS011;5883;48.818;9.114;2023-04-06T06:48:29;9.27;;;6.65;;
11653;SDS011;5883;48.818;9.114;2023-04-06T06:51:15;7.82;;;6.75;;
11653;SDS011;5883;48.818;9.114;2023-04-06T06:54:01;10.52;;;6.95;;
11653;SDS011;5883;48.818;9.114;2023-04-06T06:56:46;10.73;;;7.20;;
11653;SDS011;5883;48.818;9.114;2023-04-06T06:59:31;9.75;;;7.13;;
11653;SDS011;5883;48.818;9.114;2023-04-06T07:02:16;8.27;;;6.50;;
11653;SDS011;5883;48.818;9.114;2023-04-06T07:05:01;8.63;;;6.25;;
11653;SDS011;5883;48.818;9.114;2023-04-06T07:07:46;8.82;;;6.50;;
11653;SDS011;5883;48.818;9.114;2023-04-06T07:10:33;8.95;;;6.65;;
11653;SDS011;5883;48.818;9.114;2023-04-06T07:13:18;10.68;;;6.40;;
11653;SDS011;5883;48.818;9.114;2023-04-06T07:16:06;12.63;;;6.35;;
11653;SDS011;5883;48.818;9.114;2023-04-06T07:18:51;9.80;;;6.05;;
11653;SDS011;5883;48.818;9.114;2023-04-06T07:21:36;9.63;;;6.78;;
11653;SDS011;5883;48.818;9.114;2023-04-06T07:24:21;8.65;;;6.82;;
11653;SDS011;5883;48.818;9.114;2023-04-06T07:27:08;7.68;;;5.90;;
11653;SDS011;5883;48.818;9.114;2023-04-06T07:29:53;12.00;;;6.85;;
11653;SDS011;5883;48.818;9.114;2023-04-06T07:32:38;8.75;;;6.00;;
11653;SDS011;5883;48.818;9.114;2023-04-06T07:35:23;12.50;;;6.68;;
11653;SDS011;5883;48.818;9.114;2023-04-06T07:38:09;9.88;;;6.57;;
11653;SDS011;5883;48.818;9.114;2023-04-06T07:40:54;9.63;;;6.55;;
11653;SDS011;5883;48.818;9.114;2023-04-06T07:43:41;16.80;;;6.20;;
11653;SDS011;5883;48.818;9.114;2023-04-06T07:46:26;8.77;;;6.72;;
11653;SDS011;5883;48.818;9.114;2023-04-06T07:49:11;9.27;;;6.20;;
11653;SDS011;5883;48.818;9.114;2023-04-06T07:51:59;8.32;;;6.15;;
11653;SDS011;5883;48.818;9.114;2023-04-06T07:54:46;9.45;;;5.82;;
11653;SDS011;5883;48.818;9.114;2023-04-06T07:57:33;9.05;;;6.05;;
11653;SDS011;5883;48.818;9.114;2023-04-06T08:00:20;9.38;;;6.28;;
11653;SDS011;5883;48.818;9.114;2023-04-06T08:03:05;11.55;;;6.32;;
11653;SDS011;5883;48.818;9.114;2023-04-06T08:05:50;11.45;;;6.03;;
11653;SDS011;5883;48.818;9.114;2023-04-06T08:08:36;11.68;;;6.68;;
11653;SDS011;5883;48.818;9.114;2023-04-06T08:11:21;10.38;;;6.72;;
11653;SDS011;5883;48.818;9.114;2023-04-06T08:14:06;9.65;;;6.70;;
11653;SDS011;5883;48.818;9.114;2023-04-06T08:16:53;8.23;;;5.72;;
11653;SDS011;5883;48.818;9.114;2023-04-06T08:19:38;8.18;;;6.10;;
11653;SDS011;5883;48.818;9.114;2023-04-06T08:22:23;9.35;;;6.22;;
11653;SDS011;5883;48.818;9.114;2023-04-06T08:25:08;8.70;;;6.20;;
11653;SDS011;5883;48.818;9.114;2023-04-06T08:27:53;9.85;;;6.22;;
11653;SDS011;5883;48.818;9.114;2023-04-06T08:30:39;9.82;;;5.95;;
11653;SDS011;5883;48.818;9.114;2023-04-06T08:33:26;7.68;;;5.78;;
11653;SDS011;5883;48.818;9.114;2023-04-06T08:36:12;7.45;;;5.95;;
11653;SDS011;5883;48.818;9.114;2023-04-06T08:38:58;8.73;;;5.68;;
11653;SDS011;5883;48.818;9.114;2023-04-06T08:41:43;7.35;;;5.35;;
11653;SDS011;5883;48.818;9.114;2023-04-06T08:44:28;6.63;;;4.85;;
11653;SDS011;5883;48.818;9.114;2023-04-06T08:47:13;7.43;;;4.93;;
11653;SDS011;5883;48.818;9.114;2023-04-06T08:50:00;8.48;;;5.47;;
11653;SDS011;5883;48.818;9.114;2023-04-06T08:52:47;6.20;;;5.00;;
11653;SDS011;5883;48.818;9.114;2023-04-06T08:55:33;6.72;;;5.32;;
11653;SDS011;5883;48.818;9.114;2023-04-06T08:58:18;8.25;;;5.88;;
11653;SDS011;5883;48.818;9.114;2023-04-06T09:01:06;9.70;;;5.65;;
11653;SDS011;5883;48.818;9.114;2023-04-06T09:03:52;12.35;;;6.40;;
11653;SDS011;5883;48.818;9.114;2023-04-06T09:06:42;8.95;;;6.28;;
11653;SDS011;5883;48.818;9.114;2023-04-06T09:09:27;10.15;;;5.63;;
11653;SDS011;5883;48.818;9.114;2023-04-06T09:12:21;9.30;;;6.25;;
11653;SDS011;5883;48.818;9.114;2023-04-06T09:15:16;8.02;;;5.72;;
11653;SDS011;5883;48.818;9.114;2023-04-06T09:18:01;8.63;;;5.75;;
11653;SDS011;5883;48.818;9.114;2023-04-06T09:20:56;11.10;;;5.82;;
11653;SDS011;5883;48.818;9.114;2023-04-06T09:23:42;7.05;;;5.82;;
11653;SDS011;5883;48.818;9.114;2023-04-06T09:26:27;10.57;;;6.45;;
11653;SDS011;5883;48.818;9.114;2023-04-06T09:29:21;7.07;;;6.32;;
11653;SDS011;5883;48.818;9.114;2023-04-06T09:32:07;8.80;;;6.28;;
11653;SDS011;5883;48.818;9.114;2023-04-06T09:34:54;9.85;;;6.47;;
11653;SDS011;5883;48.818;9.114;2023-04-06T09:37:45;6.85;;;5.82;;
11653;SDS011;5883;48.818;9.114;2023-04-06T09:40:32;10.13;;;6.15;;
11653;SDS011;5883;48.818;9.114;2023-04-06T09:43:23;11.35;;;6.97;;
11653;SDS011;5883;48.818;9.114;2023-04-06T09:46:08;9.25;;;5.97;;
11653;SDS011;5883;48.818;9.114;2023-04-06T09:48:53;8.73;;;6.20;;
11653;SDS011;5883;48.818;9.114;2023-04-06T09:51:39;9.43;;;6.88;;
11653;SDS011;5883;48.818;9.114;2023-04-06T09:54:27;8.50;;;5.93;;
11653;SDS011;5883;48.818;9.114;2023-04-06T09:57:19;8.75;;;7.47;;
11653;SDS011;5883;48.818;9.114;2023-04-06T10:00:09;9.15;;;7.40;;
11653;SDS011;5883;48.818;9.114;2023-04-06T10:02:58;9.07;;;6.93;;
11653;SDS011;5883;48.818;9.114;2023-04-06T10:05:46;9.43;;;8.35;;
11653;SDS011;5883;48.818;9.114;2023-04-06T10:08:32;12.52;;;8.48;;
11653;SDS011;5883;48.818;9.114;2023-04-06T10:11:18;10.48;;;8.07;;
11653;SDS011;5883;48.818;9.114;2023-04-06T10:14:04;8.48;;;7.28;;
11653;SDS011;5883;48.818;9.114;2023-04-06T10:16:49;9.48;;;7.95;;
11653;SDS011;5883;48.818;9.114;2023-04-06T10:19:39;9.38;;;7.97;;
11653;SDS011;5883;48.818;9.114;2023-04-06T10:22:29;13.60;;;7.65;;
11653;SDS011;5883;48.818;9.114;2023-04-06T10:25:17;9.85;;;7.50;;
11653;SDS011;5883;48.818;9.114;2023-04-06T10:28:11;9.38;;;7.22;;
11653;SDS011;5883;48.818;9.114;2023-04-06T10:30:58;8.38;;;7.07;;
11653;SDS011;5883;48.818;9.114;2023-04-06T10:33:52;8.80;;;6.93;;
11653;SDS011;5883;48.818;9.114;2023-04-06T10:36:38;9.40;;;6.53;;
11653;SDS011;5883;48.818;9.114;2023-04-06T10:39:24;11.15;;;6.65;;
11653;SDS011;5883;48.818;9.114;2023-04-06T10:42:09;10.13;;;7.28;;
11653;SDS011;5883;48.818;9.114;2023-04-06T10:44:54;8.48;;;6.45;;
11653;SDS011;5883;48.818;9.114;2023-04-06T10:47:40;8.88;;;6.50;;
11653;SDS011;5883;48.818;9.114;2023-04-06T10:50:26;9.13;;;6.50;;
11653;SDS011;5883;48.818;9.114;2023-04-06T10:53:20;8.38;;;6.15;;
11653;SDS011;5883;48.818;9.114;2023-04-06T10:56:08;7.70;;;6.50;;
11653;SDS011;5883;48.818;9.114;2023-04-06T10:58:55;8.85;;;6.63;;
11653;SDS011;5883;48.818;9.114;2023-04-06T11:01:44;9.10;;;6.70;;
11653;SDS011;5883;48.818;9.114;2023-04-06T11:04:31;9.23;;;6.53;;
11653;SDS011;5883;48.818;9.114;2023-04-06T11:07:22;8.85;;;6.28;;
11653;SDS011;5883;48.818;9.114;2023-04-06T11:10:08;10.73;;;6.93;;
11653;SDS011;5883;48.818;9.114;2023-04-06T11:12:53;7.78;;;6.05;;
11653;SDS011;5883;48.818;9.114;2023-04-06T11:15:39;8.25;;;6.30;;
11653;SDS011;5883;48.818;9.114;2023-04-06T11:18:24;10.57;;;6.90;;
11653;SDS011;5883;48.818;9.114;2023-04-06T11:21:10;7.97;;;6.40;;
11653;SDS011;5883;48.818;9.114;2023-04-06T11:24:03;9.52;;;6.50;;
11653;SDS011;5883;48.818;9.114;2023-04-06T11:26:49;9.27;;;6.47;;
11653;SDS011;5883;48.818;9.114;2023-04-06T11:29:34;8.63;;;6.10;;
11653;SDS011;5883;48.818;9.114;2023-04-06T11:32:21;11.80;;;7.00;;
11653;SDS011;5883;48.818;9.114;2023-04-06T11:35:10;11.50;;;6.38;;
11653;SDS011;5883;48.818;9.114;2023-04-06T11:37:56;8.73;;;6.28;;
11653;SDS011;5883;48.818;9.114;2023-04-06T11:40:41;7.05;;;5.60;;
11653;SDS011;5883;48.818;9.114;2023-04-06T11:43:27;7.05;;;5.90;;
11653;SDS011;5883;48.818;9.114;2023-04-06T11:46:16;7.63;;;6.13;;
11653;SDS011;5883;48.818;9.114;2023-04-06T11:49:02;8.10;;;5.75;;
11653;SDS011;5883;48.818;9.114;2023-04-06T11:51:47;9.90;;;6.30;;
11653;SDS011;5883;48.818;9.114;2023-04-06T11:54:34;7.25;;;5.82;;
11653;SDS011;5883;48.818;9.114;2023-04-06T11:57:20;7.50;;;6.20;;
11653;SDS011;5883;48.818;9.114;2023-04-06T12:00:05;6.80;;;5.47;;
11653;SDS011;5883;48.818;9.114;2023-04-06T12:02:51;9.02;;;6.32;;
11653;SDS011;5883;48.818;9.114;2023-04-06T12:05:36;8.30;;;6.00;;
11653;SDS011;5883;48.818;9.114;2023-04-06T12:08:21;8.13;;;6.05;;
11653;SDS011;5883;48.818;9.114;2023-04-06T12:11:10;7.20;;;6.22;;
11653;SDS011;5883;48.818;9.114;2023-04-06T12:13:55;8.15;;;5.97;;
11653;SDS011;5883;48.818;9.114;2023-04-06T12:16:40;7.63;;;6.38;;
11653;SDS011;5883;48.818;9.114;2023-04-06T12:19:25;6.40;;;5.57;;
11653;SDS011;5883;48.818;9.114;2023-04-06T12:22:10;9.35;;;5.93;;
11653;SDS011;5883;48.818;9.114;2023-04-06T12:24:55;6.97;;;5.55;;
11653;SDS011;5883;48.818;9.114;2023-04-06T12:27:42;7.28;;;5.85;;
11653;SDS011;5883;48.818;9.114;2023-04-06T12:30:27;8.50;;;5.70;;
11653;SDS011;5883;48.818;9.114;2023-04-06T12:33:12;8.57;;;5.60;;
11653;SDS011;5883;48.818;9.114;2023-04-06T12:35:57;7.00;;;5.50;;
11653;SDS011;5883;48.818;9.114;2023-04-06T12:38:42;5.93;;;5.25;;
11653;SDS011;5883;48.818;9.114;2023-04-06T12:41:29;7.30;;;5.55;;
11653;SDS011;5883;48.818;9.114;2023-04-06T12:44:16;9.55;;;5.70;;
11653;SDS011;5883;48.818;9.114;2023-04-06T12:47:01;8.35;;;6.15;;
11653;SDS011;5883;48.818;9.114;2023-04-06T12:49:46;9.95;;;5.90;;
11653;SDS011;5883;48.818;9.114;2023-04-06T12:52:32;7.25;;;5.72;;
11653;SDS011;5883;48.818;9.114;2023-04-06T12:55:19;6.00;;;5.35;;
11653;SDS011;5883;48.818;9.114;2023-04-06T12:58:05;8.15;;;5.68;;
11653;SDS011;5883;48.818;9.114;2023-04-06T13:00:51;7.45;;;4.80;;
11653;SDS011;5883;48.818;9.114;2023-04-06T13:03:37;9.77;;;5.55;;
11653;SDS011;5883;48.818;9.114;2023-04-06T13:06:22;8.13;;;6.00;;
11653;SDS011;5883;48.818;9.114;2023-04-06T13:09:11;8.88;;;5.55;;
11653;SDS011;5883;48.818;9.114;2023-04-06T13:11:56;8.45;;;5.53;;
11653;SDS011;5883;48.818;9.114;2023-04-06T13:14:41;10.73;;;5.97;;
11653;SDS011;5883;48.818;9.114;2023-04-06T13:17:28;9.00;;;6.30;;
11653;SDS011;5883;48.818;9.114;2023-04-06T13:20:13;8.50;;;7.43;;
11653;SDS011;5883;48.818;9.114;2023-04-06T13:22:58;8.30;;;5.97;;
11653;SDS011;5883;48.818;9.114;2023-04-06T13:25:43;9.80;;;5.97;;
11653;SDS011;5883;48.818;9.114;2023-04-06T13:28:28;8.90;;;5.85;;
11653;SDS011;5883;48.818;9.114;2023-04-06T13:31:15;10.40;;;5.88;;
11653;SDS011;5883;48.818;9.114;2023-04-06T13:34:02;7.82;;;5.63;;
11653;SDS011;5883;48.818;9.114;2023-04-06T13:36:47;8.02;;;5.38;;
11653;SDS011;5883;48.818;9.114;2023-04-06T13:39:32;8.13;;;6.03;;
11653;SDS011;5883;48.818;9.114;2023-04-06T13:42:17;6.93;;;4.68;;
11653;SDS011;5883;48.818;9.114;2023-04-06T13:45:02;6.47;;;5.30;;
11653;SDS011;5883;48.818;9.114;2023-04-06T13:47:47;5.63;;;4.72;;
11653;SDS011;5883;48.818;9.114;2023-04-06T13:50:34;7.65;;;5.75;;
11653;SDS011;5883;48.818;9.114;2023-04-06T13:53:19;9.20;;;5.60;;
11653;SDS011;5883;48.818;9.114;2023-04-06T13:56:04;6.40;;;5.15;;
11653;SDS011;5883;48.818;9.114;2023-04-06T13:58:49;8.45;;;5.68;;
11653;SDS011;5883;48.818;9.114;2023-04-06T14:01:45;6.65;;;5.30;;
11653;SDS011;5883;48.818;9.114;2023-04-06T14:04:30;7.90;;;5.15;;
11653;SDS011;5883;48.818;9.114;2023-04-06T14:07:17;7.72;;;5.25;;
11653;SDS011;5883;48.818;9.114;2023-04-06T14:10:02;9.32;;;5.13;;
11653;SDS011;5883;48.818;9.114;2023-04-06T14:12:50;5.85;;;4.93;;
11653;SDS011;5883;48.818;9.114;2023-04-06T14:15:36;7.43;;;5.22;;
11653;SDS011;5883;48.818;9.114;2023-04-06T14:18:21;7.60;;;5.03;;
11653;SDS011;5883;48.818;9.114;2023-04-06T14:21:06;8.02;;;4.85;;
11653;SDS011;5883;48.818;9.114;2023-04-06T14:23:52;5.65;;;4.97;;
11653;SDS011;5883;48.818;9.114;2023-04-06T14:26:38;7.18;;;4.93;;
11653;SDS011;5883;48.818;9.114;2023-04-06T14:29:23;6.70;;;4.70;;
11653;SDS011;5883;48.818;9.114;2023-04-06T14:32:08;6.18;;;4.80;;
11653;SDS011;5883;48.818;9.114;2023-04-06T14:34:53;7.50;;;5.00;;
11653;SDS011;5883;48.818;9.114;2023-04-06T14:37:38;4.93;;;4.35;;
11653;SDS011;5883;48.818;9.114;2023-04-06T14:40:24;5.82;;;4.45;;
11653;SDS011;5883;48.818;9.114;2023-04-06T14:43:09;6.50;;;4.85;;
11653;SDS011;5883;48.818;9.114;2023-04-06T14:45:54;5.30;;;4.25;;
11653;SDS011;5883;48.818;9.114;2023-04-06T14:48:39;5.38;;;3.97;;
11653;SDS011;5883;48.818;9.114;2023-04-06T14:51:25;5.00;;;4.10;;
11653;SDS011;5883;48.818;9.114;2023-04-06T14:54:11;5.10;;;3.88;;
11653;SDS011;5883;48.818;9.114;2023-04-06T14:56:57;5.38;;;4.40;;
11653;SDS011;5883;48.818;9.114;2023-04-06T14:59:42;5.85;;;4.43;;
11653;SDS011;5883;48.818;9.114;2023-04-06T15:02:27;5.75;;;4.22;;
11653;SDS011;5883;48.818;9.114;2023-04-06T15:05:12;7.43;;;4.38;;
11653;SDS011;5883;48.818;9.114;2023-04-06T15:07:57;6.05;;;4.20;;
11653;SDS011;5883;48.818;9.114;2023-04-06T15:10:42;5.60;;;4.03;;
11653;SDS011;5883;48.818;9.114;2023-04-06T15:13:29;6.10;;;3.67;;
11653;SDS011;5883;48.818;9.114;2023-04-06T15:16:14;5.20;;;3.70;;
11653;SDS011;5883;48.818;9.114;2023-04-06T15:18:59;7.97;;;3.50;;
11653;SDS011;5883;48.818;9.114;2023-04-06T15:21:45;5.10;;;3.28;;
11653;SDS011;5883;48.818;9.114;2023-04-06T15:24:30;4.93;;;3.45;;
11653;SDS011;5883;48.818;9.114;2023-04-06T15:27:15;4.47;;;3.58;;
11653;SDS011;5883;48.818;9.114;2023-04-06T15:30:01;4.25;;;3.60;;
11653;SDS011;5883;48.818;9.114;2023-04-06T15:32:51;5.22;;;3.80;;
11653;SDS011;5883;48.818;9.114;2023-04-06T15:35:36;4.90;;;3.88;;
11653;SDS011;5883;48.818;9.114;2023-04-06T15:38:23;7.07;;;3.58;;
11653;SDS011;5883;48.818;9.114;2023-04-06T15:41:08;5.25;;;3.80;;
11653;SDS011;5883;48.818;9.114;2023-04-06T15:43:54;10.95;;;5.32;;
11653;SDS011;5883;48.818;9.114;2023-04-06T15:46:41;13.98;;;5.00;;
11653;SDS011;5883;48.818;9.114;2023-04-06T15:49:26;10.35;;;5.75;;
11653;SDS011;5883;48.818;9.114;2023-04-06T15:52:10;8.52;;;5.55;;
11653;SDS011;5883;48.818;9.114;2023-04-06T15:54:56;6.40;;;5.22;;
11653;SDS011;5883;48.818;9.114;2023-04-06T15:57:41;6.78;;;5.05;;
11653;SDS011;5883;48.818;9.114;2023-04-06T16:00:26;9.98;;;5.22;;
11653;SDS011;5883;48.818;9.114;2023-04-06T16:03:13;10.57;;;6.03;;
11653;SDS011;5883;48.818;9.114;2023-04-06T16:05:58;9.15;;;5.82;;
11653;SDS011;5883;48.818;9.114;2023-04-06T16:08:44;9.80;;;6.28;;
11653;SDS011;5883;48.818;9.114;2023-04-06T16:11:29;7.78;;;5.95;;
11653;SDS011;5883;48.818;9.114;2023-04-06T16:14:15;8.75;;;5.57;;
11653;SDS011;5883;48.818;9.114;2023-04-06T16:17:00;9.35;;;6.07;;
11653;SDS011;5883;48.818;9.114;2023-04-06T16:19:46;11.18;;;6.15;;
11653;SDS011;5883;48.818;9.114;2023-04-06T16:22:32;11.27;;;6.57;;
11653;SDS011;5883;48.818;9.114;2023-04-06T16:25:17;9.52;;;6.60;;
11653;SDS011;5883;48.818;9.114;2023-04-06T16:28:02;9.18;;;6.78;;
11653;SDS011;5883;48.818;9.114;2023-04-06T16:30:47;13.05;;;6.70;;
11653;SDS011;5883;48.818;9.114;2023-04-06T16:33:32;16.88;;;6.72;;
11653;SDS011;5883;48.818;9.114;2023-04-06T16:36:22;7.50;;;6.28;;
11653;SDS011;5883;48.818;9.114;2023-04-06T16:39:08;8.25;;;5.60;;
11653;SDS011;5883;48.818;9.114;2023-04-06T16:41:53;9.73;;;6.15;;
11653;SDS011;5883;48.818;9.114;2023-04-06T16:44:39;8.30;;;5.35;;
11653;SDS011;5883;48.818;9.114;2023-04-06T16:47:24;8.90;;;5.32;;
11653;SDS011;5883;48.818;9.114;2023-04-06T16:50:09;6.65;;;5.38;;
11653;SDS011;5883;48.818;9.114;2023-04-06T16:52:55;8.02;;;5.00;;